Time;durP1;ratioP1;P1;durP2;ratioP2;P2;SDS_P1;SDS_P2;PMS_P1;PMS_P2;Temp;Humidity;BMP_temperature;BMP_pressure;BME280_temperature;BME280_humidity;BME280_pressure;Samples;Min_cycle;Max_cycle;Signal;HPM_P1;HPM_P2
2023/04/09 00:01:22;;;;;;;33.50;20.10;;;4.50;99.90;;;;;;4975826;28;20081;-75
2023/04/09 00:03:47;;;;;;;41.35;23.45;;;4.50;99.90;;;;;;4958347;28;20023;-76
2023/04/09 00:06:13;;;;;;;42.80;23.17;;;4.50;99.90;;;;;;4975629;28;20023;-75
2023/04/09 00:08:38;;;;;;;31.20;18.88;;;4.50;99.90;;;;;;4958236;28;20023;-76
2023/04/09 00:11:04;;;;;;;38.08;21.00;;;4.50;99.90;;;;;;4958242;28;20146;-75
2023/04/09 00:13:30;;;;;;;46.65;25.10;;;4.50;99.90;;;;;;4975361;28;20041;-76
2023/04/09 00:15:55;;;;;;;43.40;24.52;;;4.50;99.90;;;;;;4975625;28;20050;-75
2023/04/09 00:18:21;;;;;;;38.63;22.33;;;4.50;99.90;;;;;;4958143;28;20027;-75
2023/04/09 00:20:47;;;;;;;44.55;25.05;;;4.50;99.90;;;;;;4975265;28;20057;-75
2023/04/09 00:23:12;;;;;;;52.17;28.67;;;4.50;99.90;;;;;;4985793;28;20546;-76
2023/04/09 00:25:38;;;;;;;68.40;37.08;;;4.50;99.90;;;;;;4994659;28;20022;-76
2023/04/09 00:28:03;;;;;;;75.22;36.92;;;4.50;99.90;;;;;;4977234;28;20022;-76
2023/04/09 00:30:29;;;;;;;59.20;31.83;;;4.50;99.90;;;;;;4994702;28;20138;-77
2023/04/09 00:32:55;;;;;;;60.38;33.67;;;4.50;99.90;;;;;;4994415;28;20050;-75
2023/04/09 00:35:21;;;;;;;56.22;29.92;;;4.50;99.90;;;;;;4977150;28;20061;-76
2023/04/09 00:37:47;;;;;;;48.33;27.95;;;4.40;99.90;;;;;;4977095;28;20544;-76
2023/04/09 00:40:13;;;;;;;46.60;26.02;;;4.40;99.90;;;;;;4994691;28;20026;-75
2023/04/09 00:42:39;;;;;;;41.22;23.83;;;4.40;99.90;;;;;;4976509;28;20034;-75
2023/04/09 00:45:05;;;;;;;42.85;25.33;;;4.40;99.90;;;;;;4994449;28;20031;-75
2023/04/09 00:47:32;;;;;;;46.63;24.30;;;4.30;99.90;;;;;;4994231;28;20101;-77
2023/04/09 00:49:59;;;;;;;46.85;25.60;;;4.30;99.90;;;;;;4977000;28;20022;-75
2023/04/09 00:52:24;;;;;;;45.00;25.90;;;4.30;99.90;;;;;;4994226;28;20029;-75
2023/04/09 00:54:51;;;;;;;50.25;27.50;;;4.30;99.90;;;;;;4976870;28;20018;-76
2023/04/09 00:57:17;;;;;;;52.22;27.25;;;4.30;99.90;;;;;;4994297;28;20027;-75
2023/04/09 00:59:44;;;;;;;53.90;28.15;;;4.20;99.90;;;;;;4994142;28;20120;-75
2023/04/09 01:02:10;;;;;;;78.65;41.45;;;4.20;99.90;;;;;;4976798;28;20109;-76
2023/04/09 01:04:36;;;;;;;63.20;32.08;;;4.20;99.90;;;;;;4994252;28;20057;-76
2023/04/09 01:07:27;;;;;;;59.03;29.73;;;4.20;99.90;;;;;;4994278;28;20388;-75
2023/04/09 01:10:16;;;;;;;46.97;26.17;;;4.20;99.90;;;;;;4994331;28;20022;-77
2023/04/09 01:12:57;;;;;;;48.05;26.73;;;4.10;99.90;;;;;;4994012;28;20030;-75
2023/04/09 01:15:30;;;;;;;42.45;24.58;;;4.10;99.90;;;;;;4994126;28;20566;-75
2023/04/09 01:18:00;;;;;;;;;;;4.10;99.90;;;;;;4994406;28;20030;-75
2023/04/09 01:20:39;;;;;;;45.13;23.70;;;4.10;99.90;;;;;;4992562;28;19924;-76
2023/04/09 01:23:31;;;;;;;40.70;21.70;;;4.00;99.90;;;;;;4994137;28;20480;-75
2023/04/09 01:26:00;;;;;;;39.72;22.40;;;4.00;99.90;;;;;;4976475;28;20476;-77
2023/04/09 01:28:31;;;;;;;42.88;23.35;;;4.00;99.90;;;;;;4976299;28;20031;-76
2023/04/09 01:31:02;;;;;;;44.55;23.85;;;4.00;99.90;;;;;;4993982;28;20033;-77
2023/04/09 01:33:30;;;;;;;45.47;25.70;;;4.00;99.90;;;;;;4993786;28;20046;-75
2023/04/09 01:35:57;;;;;;;41.78;24.63;;;3.90;99.90;;;;;;4993895;28;20371;-75
2023/04/09 01:38:24;;;;;;;52.78;29.35;;;3.90;99.90;;;;;;4993741;28;20030;-76
2023/04/09 01:40:52;;;;;;;43.85;25.27;;;3.90;99.90;;;;;;4993792;28;20023;-75
2023/04/09 01:43:18;;;;;;;44.72;23.10;;;3.90;99.90;;;;;;4976381;28;20018;-75
2023/04/09 01:45:45;;;;;;;40.88;23.45;;;3.90;99.90;;;;;;4976376;28;20022;-75
2023/04/09 01:48:12;;;;;;;41.58;23.42;;;3.80;99.90;;;;;;4993667;28;20400;-75
2023/04/09 01:50:39;;;;;;;37.58;19.70;;;3.80;99.90;;;;;;4993716;28;20473;-75
2023/04/09 01:53:05;;;;;;;31.98;18.00;;;3.70;99.90;;;;;;4978138;28;20499;-75
2023/04/09 01:55:30;;;;;;;28.83;17.30;;;3.70;99.90;;;;;;4997596;28;20098;-75
2023/04/09 01:57:56;;;;;;;29.63;17.55;;;3.70;99.90;;;;;;4997537;28;20041;-76
2023/04/09 02:00:25;;;;;;;33.90;20.17;;;3.70;99.90;;;;;;4997551;28;20030;-75
2023/04/09 02:03:20;;;;;;;28.65;17.98;;;3.70;99.90;;;;;;4997508;28;20030;-75
2023/04/09 02:05:56;;;;;;;35.20;18.15;;;3.70;99.90;;;;;;4979205;28;20129;-75
2023/04/09 02:08:23;;;;;;;31.67;18.15;;;3.70;99.90;;;;;;4997323;28;20019;-75
2023/04/09 02:10:54;;;;;;;27.17;16.40;;;3.70;99.90;;;;;;4997344;28;20026;-75
2023/04/09 02:13:20;;;;;;;26.00;16.17;;;3.70;99.90;;;;;;4997174;28;20034;-77
2023/04/09 02:15:48;;;;;;;32.60;18.90;;;3.70;99.90;;;;;;4997193;28;20023;-76
2023/04/09 02:18:27;;;;;;;27.30;17.42;;;3.70;99.90;;;;;;4997150;28;20049;-76
2023/04/09 02:20:54;;;;;;;30.98;18.92;;;3.60;99.90;;;;;;4997097;28;20057;-75
2023/04/09 02:23:20;;;;;;;36.55;20.27;;;3.60;99.90;;;;;;4996947;28;20026;-75
2023/04/09 02:25:46;;;;;;;38.25;19.60;;;3.60;99.90;;;;;;4979518;28;20117;-76
2023/04/09 02:28:11;;;;;;;36.60;20.23;;;3.60;99.90;;;;;;4979456;28;20113;-76
2023/04/09 02:30:37;;;;;;;38.60;21.90;;;3.50;99.90;;;;;;4996897;28;20477;-75
2023/04/09 02:33:03;;;;;;;32.58;20.35;;;3.60;99.90;;;;;;4996769;28;20404;-75
2023/04/09 02:35:28;;;;;;;34.65;20.10;;;3.50;99.90;;;;;;4996774;28;20401;-76
2023/04/09 02:37:54;;;;;;;35.97;20.30;;;3.50;99.90;;;;;;4996856;28;20583;-76
2023/04/09 02:40:20;;;;;;;42.10;24.13;;;3.50;99.90;;;;;;4979347;28;20018;-75
2023/04/09 02:42:45;;;;;;;42.33;25.25;;;3.50;99.90;;;;;;4996666;28;20023;-76
2023/04/09 02:45:11;;;;;;;49.05;28.98;;;3.50;99.90;;;;;;4996530;28;20023;-76
2023/04/09 02:47:37;;;;;;;40.85;24.90;;;3.40;99.90;;;;;;4978978;28;20019;-75
2023/04/09 02:50:03;;;;;;;41.03;23.92;;;3.50;99.90;;;;;;4996641;28;20027;-76
2023/04/09 02:52:28;;;;;;;40.50;23.70;;;3.50;99.90;;;;;;4979149;28;20459;-75
2023/04/09 02:54:54;;;;;;;38.53;23.25;;;3.50;99.90;;;;;;4996584;28;20097;-77
2023/04/09 02:57:19;;;;;;;48.58;27.00;;;3.50;99.90;;;;;;4979057;28;20015;-75
2023/04/09 02:59:45;;;;;;;52.35;27.75;;;3.50;99.90;;;;;;4978948;28;20409;-75
2023/04/09 03:02:11;;;;;;;43.05;25.50;;;3.50;99.90;;;;;;4996477;28;20022;-76
2023/04/09 03:04:37;;;;;;;48.42;27.48;;;3.50;99.90;;;;;;4978102;28;20019;-76
2023/04/09 03:07:03;;;;;;;48.90;26.95;;;3.50;99.90;;;;;;4996201;28;20046;-75
2023/04/09 03:09:29;;;;;;;56.15;29.45;;;3.50;99.90;;;;;;4996208;28;20022;-75
2023/04/09 03:11:56;;;;;;;45.25;26.50;;;3.50;99.90;;;;;;4996284;28;20416;-76
2023/04/09 03:14:24;;;;;;;37.58;23.67;;;3.50;99.90;;;;;;4978607;28;20034;-75
2023/04/09 03:16:50;;;;;;;41.55;24.52;;;3.50;99.90;;;;;;4996112;28;20030;-75
2023/04/09 03:19:15;;;;;;;51.92;25.98;;;3.60;99.90;;;;;;4996110;28;20097;-76
2023/04/09 03:21:41;;;;;;;41.00;23.98;;;3.60;99.90;;;;;;4995901;28;20054;-76
2023/04/09 03:24:07;;;;;;;42.30;23.58;;;3.50;99.90;;;;;;4978503;28;20495;-75
2023/04/09 03:26:35;;;;;;;40.67;23.45;;;3.50;99.90;;;;;;4978412;28;20022;-75
2023/04/09 03:29:05;;;;;;;42.17;24.58;;;3.50;99.90;;;;;;4978437;28;20018;-75
2023/04/09 03:31:31;;;;;;;45.05;24.80;;;3.40;99.90;;;;;;4978185;28;20369;-76
2023/04/09 03:33:56;;;;;;;41.45;23.27;;;3.40;99.90;;;;;;4995608;28;20492;-75
2023/04/09 03:36:22;;;;;;;46.97;25.33;;;3.40;99.90;;;;;;4995756;28;20037;-75
2023/04/09 03:38:49;;;;;;;41.33;23.35;;;3.40;99.90;;;;;;4995822;28;20029;-76
2023/04/09 03:41:14;;;;;;;39.63;21.33;;;3.40;99.90;;;;;;4978200;28;20031;-74
2023/04/09 03:43:40;;;;;;;39.83;23.50;;;3.50;99.90;;;;;;4978086;28;20025;-75
2023/04/09 03:46:16;;;;;;;39.25;22.27;;;3.50;99.90;;;;;;4978165;28;20065;-75
2023/04/09 03:48:41;;;;;;;41.25;23.33;;;3.50;99.90;;;;;;4978039;28;20461;-75
2023/04/09 03:51:12;;;;;;;42.45;23.88;;;3.60;99.90;;;;;;4978010;28;20105;-75
2023/04/09 03:53:38;;;;;;;47.08;26.35;;;3.50;99.90;;;;;;4977636;28;20046;-75
2023/04/09 03:56:03;;;;;;;51.22;27.02;;;3.60;99.90;;;;;;4995354;28;20030;-75
2023/04/09 03:58:29;;;;;;;37.83;22.65;;;3.60;99.90;;;;;;4995174;28;20027;-76
2023/04/09 04:00:55;;;;;;;45.25;24.88;;;3.60;99.90;;;;;;4978153;28;20026;-76
2023/04/09 04:03:20;;;;;;;40.75;22.92;;;3.50;99.90;;;;;;4977646;28;20494;-75
2023/04/09 04:05:46;;;;;;;36.17;20.15;;;3.50;99.90;;;;;;4995159;28;20097;-75
2023/04/09 04:08:11;;;;;;;37.15;19.83;;;3.50;99.90;;;;;;4977643;28;20023;-75
2023/04/09 04:10:37;;;;;;;36.50;20.02;;;3.50;99.90;;;;;;4991751;28;20026;-76
2023/04/09 04:13:02;;;;;;;31.55;18.77;;;3.50;99.90;;;;;;4975523;28;20106;-75
2023/04/09 04:15:28;;;;;;;48.67;24.35;;;3.50;99.90;;;;;;4974882;28;20034;-76
2023/04/09 04:17:54;;;;;;;51.10;26.83;;;3.50;99.90;;;;;;4957874;28;20094;-75
2023/04/09 04:20:20;;;;;;;46.03;25.98;;;3.40;99.90;;;;;;4975328;28;20026;-75
2023/04/09 04:22:45;;;;;;;38.58;22.73;;;3.40;99.90;;;;;;4960123;28;20029;-75
2023/04/09 04:25:11;;;;;;;47.95;25.05;;;3.40;99.90;;;;;;4974135;28;20465;-76
2023/04/09 04:27:40;;;;;;;41.50;20.80;;;3.40;99.90;;;;;;4973916;28;20027;-77
2023/04/09 04:30:08;;;;;;;41.00;23.27;;;3.40;99.90;;;;;;4974052;28;20027;-75
2023/04/09 04:32:34;;;;;;;38.85;22.25;;;3.40;99.90;;;;;;4973955;28;20399;-76
2023/04/09 04:34:59;;;;;;;60.78;31.23;;;3.40;99.90;;;;;;4973914;28;20113;-76
2023/04/09 04:37:25;;;;;;;77.60;39.33;;;3.40;99.90;;;;;;4975253;28;20029;-75
2023/04/09 04:39:51;;;;;;;47.30;25.40;;;3.40;99.90;;;;;;4970899;28;20384;-76
2023/04/09 04:42:16;;;;;;;43.17;22.88;;;3.40;99.90;;;;;;4967662;28;20018;-75
2023/04/09 04:44:43;;;;;;;42.20;23.30;;;3.40;99.90;;;;;;4984480;28;20473;-75
2023/04/09 04:47:09;;;;;;;40.45;22.70;;;3.40;99.90;;;;;;4966169;28;20026;-76
2023/04/09 04:49:34;;;;;;;49.90;28.50;;;3.50;99.90;;;;;;4967651;28;20011;-76
2023/04/09 04:52:00;;;;;;;53.08;28.73;;;3.50;99.90;;;;;;4984105;28;20023;-76
2023/04/09 04:54:26;;;;;;;37.55;22.45;;;3.60;99.90;;;;;;4965972;28;20068;-76
2023/04/09 04:56:51;;;;;;;41.78;24.52;;;3.60;99.90;;;;;;4985141;28;20057;-75
2023/04/09 04:59:17;;;;;;;49.70;26.83;;;3.60;99.90;;;;;;4958203;28;20384;-75
2023/04/09 05:01:42;;;;;;;80.25;42.42;;;3.60;99.90;;;;;;4966525;28;20543;-76
2023/04/09 05:04:08;;;;;;;60.53;32.83;;;3.70;99.90;;;;;;4979705;28;20072;-75
2023/04/09 05:06:33;;;;;;;54.75;31.73;;;3.70;99.90;;;;;;4957423;28;20500;-76
2023/04/09 05:09:00;;;;;;;41.47;24.73;;;3.70;99.90;;;;;;4974701;28;20023;-75
2023/04/09 05:11:26;;;;;;;47.53;28.10;;;3.70;99.90;;;;;;4974686;28;20050;-75
2023/04/09 05:13:52;;;;;;;51.38;29.35;;;3.70;99.90;;;;;;4974580;28;20389;-76
2023/04/09 05:16:19;;;;;;;46.10;27.88;;;3.80;99.90;;;;;;4957408;28;20034;-75
2023/04/09 05:18:45;;;;;;;52.75;30.40;;;3.70;99.90;;;;;;4964233;28;20389;-76
2023/04/09 05:21:11;;;;;;;51.97;29.05;;;3.70;99.90;;;;;;4970375;28;20059;-75
2023/04/09 05:23:36;;;;;;;59.55;31.92;;;3.70;99.90;;;;;;4977869;28;20037;-75
2023/04/09 05:26:02;;;;;;;53.38;29.35;;;3.70;99.90;;;;;;4959954;28;20408;-75
2023/04/09 05:28:28;;;;;;;54.42;30.73;;;3.70;99.90;;;;;;4967212;28;20073;-76
2023/04/09 05:30:53;;;;;;;48.60;26.80;;;3.70;99.90;;;;;;4968669;28;20488;-75
2023/04/09 05:33:19;;;;;;;52.03;29.67;;;3.80;99.90;;;;;;4985086;28;20046;-75
2023/04/09 05:35:45;;;;;;;50.20;28.67;;;3.80;99.90;;;;;;4960562;28;20031;-75
2023/04/09 05:38:12;;;;;;;46.95;25.17;;;3.90;99.90;;;;;;4961391;28;20102;-75
2023/04/09 05:40:38;;;;;;;43.75;24.00;;;3.90;99.90;;;;;;4972975;28;20417;-77
2023/04/09 05:43:03;;;;;;;43.47;25.95;;;3.90;99.90;;;;;;4987628;28;20080;-76
2023/04/09 05:45:29;;;;;;;43.70;24.67;;;4.00;99.90;;;;;;4946379;28;20049;-75
2023/04/09 05:47:55;;;;;;;46.67;25.23;;;4.00;99.90;;;;;;4961553;28;20042;-76
2023/04/09 05:50:21;;;;;;;45.50;26.42;;;4.00;99.90;;;;;;4961454;29;20082;-76
2023/04/09 05:52:46;;;;;;;50.33;27.58;;;4.10;99.90;;;;;;4960557;28;20035;-76
2023/04/09 05:55:12;;;;;;;49.88;27.60;;;4.10;99.90;;;;;;4962832;28;20177;-77
2023/04/09 05:57:37;;;;;;;48.75;28.58;;;4.20;99.90;;;;;;4980376;28;20050;-76
2023/04/09 06:00:04;;;;;;;51.63;27.52;;;4.20;99.90;;;;;;4980376;28;20037;-77
2023/04/09 06:02:29;;;;;;;52.00;29.17;;;4.20;99.90;;;;;;4962834;28;20111;-77
2023/04/09 06:04:55;;;;;;;56.92;32.58;;;4.20;99.90;;;;;;4980139;28;20101;-77
2023/04/09 06:07:21;;;;;;;55.20;29.48;;;4.30;99.90;;;;;;4980264;28;20366;-77
2023/04/09 06:09:47;;;;;;;64.78;31.52;;;4.40;99.90;;;;;;4980202;28;20023;-77
2023/04/09 06:12:13;;;;;;;72.45;40.47;;;4.40;99.90;;;;;;4962956;28;20441;-77
2023/04/09 06:14:38;;;;;;;67.10;38.92;;;4.40;99.90;;;;;;4980008;28;20066;-77
2023/04/09 06:17:04;;;;;;;75.38;38.97;;;4.50;99.90;;;;;;4977229;28;20065;-77
2023/04/09 06:19:30;;;;;;;67.95;37.33;;;4.50;99.90;;;;;;4978401;28;20042;-77
2023/04/09 06:21:56;;;;;;;64.32;33.13;;;4.60;99.90;;;;;;4978922;28;20043;-77
2023/04/09 06:24:22;;;;;;;64.38;35.38;;;4.60;99.90;;;;;;4978692;28;20093;-77
2023/04/09 06:26:48;;;;;;;65.88;36.17;;;4.60;99.90;;;;;;4979230;28;20034;-77
2023/04/09 06:29:13;;;;;;;70.90;39.00;;;4.70;99.90;;;;;;4978805;28;20050;-77
2023/04/09 06:31:39;;;;;;;76.50;43.65;;;4.70;99.90;;;;;;4979522;28;20788;-78
2023/04/09 06:34:05;;;;;;;76.78;44.85;;;4.70;99.90;;;;;;4960889;28;20039;-76
2023/04/09 06:36:32;;;;;;;78.40;42.22;;;4.80;99.90;;;;;;4979358;28;20026;-77
2023/04/09 06:38:58;;;;;;;73.00;40.75;;;4.80;99.90;;;;;;4976640;28;20063;-77
2023/04/09 06:41:25;;;;;;;82.68;45.47;;;4.90;99.90;;;;;;4976216;28;20023;-77
2023/04/09 06:43:51;;;;;;;88.05;46.85;;;5.00;99.90;;;;;;4975950;28;20471;-77
2023/04/09 06:46:18;;;;;;;72.95;40.90;;;5.00;99.90;;;;;;4975848;28;20039;-77
2023/04/09 06:48:45;;;;;;;74.93;38.95;;;5.00;99.90;;;;;;4975230;28;20039;-75
2023/04/09 06:51:10;;;;;;;72.40;38.20;;;5.10;99.90;;;;;;4975778;28;20033;-75
2023/04/09 06:53:39;;;;;;;68.88;37.90;;;5.10;99.90;;;;;;4958272;28;20042;-75
2023/04/09 06:56:06;;;;;;;68.55;37.33;;;5.20;99.90;;;;;;4975774;28;20026;-75
2023/04/09 06:58:32;;;;;;;70.85;37.55;;;5.20;99.90;;;;;;4975697;28;20048;-75
2023/04/09 07:00:58;;;;;;;67.97;37.10;;;5.30;99.90;;;;;;4977216;28;20027;-75
2023/04/09 07:03:26;;;;;;;62.35;36.17;;;5.30;99.90;;;;;;4982422;28;20575;-75
2023/04/09 07:05:53;;;;;;;59.30;35.05;;;5.40;99.90;;;;;;4958688;28;20417;-75
2023/04/09 07:08:18;;;;;;;70.00;38.38;;;5.40;99.90;;;;;;4966367;28;20073;-75
2023/04/09 07:10:46;;;;;;;68.07;38.17;;;5.50;99.90;;;;;;4978725;28;20022;-76
2023/04/09 07:13:11;;;;;;;64.75;38.47;;;5.60;99.90;;;;;;4958094;28;20045;-75
2023/04/09 07:15:37;;;;;;;64.18;37.55;;;5.70;99.90;;;;;;4985076;28;20014;-75
2023/04/09 07:18:03;;;;;;;66.00;37.15;;;5.80;99.90;;;;;;4990084;28;20022;-76
2023/04/09 07:20:29;;;;;;;63.70;35.78;;;5.80;99.90;;;;;;4957734;28;20046;-76
2023/04/09 07:22:54;;;;;;;59.47;34.42;;;5.90;99.90;;;;;;4974244;28;20109;-74
2023/04/09 07:25:20;;;;;;;60.33;34.75;;;5.90;99.90;;;;;;4973780;28;20452;-77
2023/04/09 07:27:46;;;;;;;59.92;33.75;;;5.90;99.90;;;;;;4975644;28;20042;-76
2023/04/09 07:30:11;;;;;;;62.90;35.10;;;5.90;99.90;;;;;;4962911;28;20070;-75
2023/04/09 07:32:37;;;;;;;59.90;36.35;;;6.00;99.90;;;;;;4983627;28;20097;-75
2023/04/09 07:35:05;;;;;;;59.58;33.72;;;6.00;99.90;;;;;;4956893;28;20055;-75
2023/04/09 07:37:31;;;;;;;61.35;33.95;;;6.10;99.90;;;;;;4977900;28;20026;-75
2023/04/09 07:39:56;;;;;;;57.80;34.95;;;6.20;99.90;;;;;;4960646;28;20026;-77
2023/04/09 07:42:22;;;;;;;60.47;33.63;;;6.30;99.90;;;;;;4980031;28;20077;-77
2023/04/09 07:44:48;;;;;;;55.90;33.53;;;6.30;99.90;;;;;;4957171;28;20404;-77
2023/04/09 07:47:13;;;;;;;66.97;35.83;;;6.30;99.90;;;;;;4956968;28;20477;-77
2023/04/09 07:49:39;;;;;;;59.33;35.28;;;6.30;99.90;;;;;;4957031;28;20880;-77
2023/04/09 07:52:05;;;;;;;62.40;35.72;;;6.40;99.90;;;;;;4957316;28;20034;-77
2023/04/09 07:54:33;;;;;;;70.13;38.63;;;6.40;99.90;;;;;;4974558;28;20043;-75
2023/04/09 07:57:00;;;;;;;69.30;38.28;;;6.40;99.90;;;;;;4974822;28;20018;-77
2023/04/09 07:59:26;;;;;;;63.75;37.45;;;6.50;99.90;;;;;;4974540;28;20066;-75
2023/04/09 08:01:52;;;;;;;63.08;37.58;;;6.60;99.90;;;;;;4957195;28;20027;-75
2023/04/09 08:04:18;;;;;;;67.70;39.08;;;6.60;99.90;;;;;;4974161;28;20061;-75
2023/04/09 08:06:49;;;;;;;66.38;39.58;;;6.60;99.90;;;;;;4974179;28;20035;-77
2023/04/09 08:09:20;;;;;;;72.43;41.50;;;6.70;99.90;;;;;;4975258;28;20019;-75
2023/04/09 08:11:47;;;;;;;68.43;38.03;;;6.80;99.90;;;;;;4975443;28;20027;-75
2023/04/09 08:14:14;;;;;;;63.88;37.17;;;6.90;99.90;;;;;;4962811;28;20058;-76
2023/04/09 08:16:44;;;;;;;64.43;36.47;;;6.90;99.90;;;;;;4957826;28;20057;-76
2023/04/09 08:19:10;;;;;;;67.95;40.10;;;7.00;99.90;;;;;;4958112;28;20023;-77
2023/04/09 08:21:37;;;;;;;66.60;37.90;;;7.10;99.90;;;;;;4973933;28;20047;-75
2023/04/09 08:24:04;;;;;;;63.50;37.67;;;7.10;99.90;;;;;;4975122;28;20389;-77
2023/04/09 08:26:30;;;;;;;66.22;37.05;;;7.20;99.90;;;;;;4958186;28;20110;-76
2023/04/09 08:28:56;;;;;;;65.88;36.95;;;7.20;99.90;;;;;;4975180;28;20094;-76
2023/04/09 08:31:22;;;;;;;67.75;37.17;;;7.20;99.90;;;;;;4957577;28;20033;-76
2023/04/09 08:33:48;;;;;;;63.25;36.45;;;7.30;99.90;;;;;;4957440;28;20043;-76
2023/04/09 08:36:13;;;;;;;60.90;35.00;;;7.30;99.90;;;;;;4990424;28;20038;-75
2023/04/09 08:38:39;;;;;;;56.90;32.08;;;7.40;99.90;;;;;;4976597;28;20029;-76
2023/04/09 08:41:05;;;;;;;61.03;35.83;;;7.40;99.90;;;;;;4957023;28;20022;-77
2023/04/09 08:43:35;;;;;;;58.97;33.35;;;7.40;99.90;;;;;;4957373;28;20019;-75
2023/04/09 08:46:02;;;;;;;58.15;35.42;;;7.50;99.90;;;;;;4975416;28;20031;-77
2023/04/09 08:48:28;;;;;;;61.75;35.92;;;7.50;99.90;;;;;;4974127;28;20193;-75
2023/04/09 08:50:54;;;;;;;81.25;49.28;;;7.50;99.90;;;;;;4974597;28;20031;-76
2023/04/09 08:53:23;;;;;;;93.65;52.92;;;7.50;99.90;;;;;;4956840;28;20031;-77
2023/04/09 08:55:48;;;;;;;360.92;170.07;;;7.60;99.90;;;;;;4974411;28;20081;-76
2023/04/09 08:58:14;;;;;;;109.43;58.45;;;7.60;99.90;;;;;;4973876;28;20981;-75
2023/04/09 09:00:39;;;;;;;71.90;40.47;;;7.70;99.90;;;;;;4973816;28;20496;-75
2023/04/09 09:03:14;;;;;;;210.90;134.10;;;7.70;99.90;;;;;;4973947;28;20034;-76
2023/04/09 09:05:41;;;;;;;151.18;95.35;;;7.70;99.90;;;;;;4974409;28;20374;-78
2023/04/09 09:08:09;;;;;;;153.02;92.75;;;7.80;99.90;;;;;;4956675;28;20113;-77
2023/04/09 09:10:43;;;;;;;81.72;47.80;;;7.80;99.90;;;;;;4968872;28;20603;-77
2023/04/09 09:13:21;;;;;;;63.83;36.47;;;7.80;99.90;;;;;;4953411;28;20034;-77
2023/04/09 09:15:49;;;;;;;57.78;35.95;;;7.80;99.90;;;;;;4952229;29;20062;-77
2023/04/09 09:18:16;;;;;;;54.22;32.45;;;7.80;99.90;;;;;;4953513;28;20155;-77
2023/04/09 09:20:41;;;;;;;69.15;39.13;;;7.90;99.90;;;;;;4967923;28;20038;-76
2023/04/09 09:23:07;;;;;;;66.90;36.50;;;7.90;99.90;;;;;;4972977;28;20034;-77
2023/04/09 09:25:42;;;;;;;133.15;62.38;;;7.90;99.90;;;;;;4955833;28;20027;-77
2023/04/09 09:28:10;;;;;;;101.75;55.55;;;7.90;99.90;;;;;;4956721;28;20026;-77
2023/04/09 09:30:38;;;;;;;78.18;42.70;;;7.90;99.90;;;;;;4974036;28;20114;-77
2023/04/09 09:33:06;;;;;;;83.88;42.00;;;8.00;99.90;;;;;;4974018;28;20031;-77
2023/04/09 09:35:47;;;;;;;84.57;44.92;;;8.00;99.90;;;;;;4956591;28;20481;-76
2023/04/09 09:38:14;;;;;;;80.20;42.55;;;8.00;99.90;;;;;;4956789;28;20045;-77
2023/04/09 09:40:40;;;;;;;64.75;37.50;;;8.00;99.90;;;;;;4956359;28;20552;-77
2023/04/09 09:43:06;;;;;;;63.65;36.05;;;8.00;99.90;;;;;;4972925;28;20053;-77
2023/04/09 09:45:32;;;;;;;77.07;41.90;;;8.00;99.90;;;;;;4974029;28;20026;-77
2023/04/09 09:47:58;;;;;;;64.53;37.97;;;8.00;99.90;;;;;;4973823;28;20027;-77
2023/04/09 09:50:24;;;;;;;63.58;34.80;;;8.10;99.90;;;;;;4973830;28;20092;-77
2023/04/09 09:52:57;;;;;;;61.40;35.95;;;8.20;99.90;;;;;;4956306;28;20023;-77
2023/04/09 09:55:23;;;;;;;;;;;8.20;99.90;;;;;;4974363;28;20429;-77
2023/04/09 09:57:52;;;;;;;56.28;33.00;;;8.20;99.90;;;;;;4972393;28;19917;-77
2023/04/09 10:00:24;;;;;;;60.67;35.03;;;8.30;99.90;;;;;;4956453;28;20023;-77
2023/04/09 10:03:07;;;;;;;63.15;36.92;;;8.30;99.90;;;;;;4973002;28;20062;-77
2023/04/09 10:05:35;;;;;;;60.25;34.42;;;8.40;99.90;;;;;;4973860;28;20026;-77
2023/04/09 10:08:01;;;;;;;56.92;34.25;;;8.30;99.90;;;;;;4973415;28;20381;-77
2023/04/09 10:10:28;;;;;;;58.58;33.60;;;8.40;99.90;;;;;;4973468;28;20481;-77
2023/04/09 10:12:55;;;;;;;53.38;33.55;;;8.40;99.90;;;;;;4973329;28;20058;-77
2023/04/09 10:15:20;;;;;;;117.05;55.28;;;8.40;99.90;;;;;;4976199;28;20031;-77
2023/04/09 10:17:46;;;;;;;87.57;45.22;;;8.50;99.90;;;;;;4977135;28;20042;-77
2023/04/09 10:20:21;;;;;;;63.17;35.08;;;8.50;99.90;;;;;;4959879;28;20380;-77
2023/04/09 10:22:49;;;;;;;55.95;34.58;;;8.50;99.90;;;;;;4958501;28;20070;-77
2023/04/09 10:25:16;;;;;;;58.10;34.65;;;8.60;99.90;;;;;;4971155;28;20082;-77
2023/04/09 10:27:47;;;;;;;159.75;75.88;;;8.80;99.90;;;;;;4940363;28;20489;-75
2023/04/09 10:30:31;;;;;;;96.95;49.72;;;8.90;99.90;;;;;;4976565;28;20077;-77
2023/04/09 10:33:15;;;;;;;59.10;34.63;;;9.00;99.90;;;;;;4958587;28;20027;-76
2023/04/09 10:35:41;;;;;;;64.30;35.00;;;9.00;99.90;;;;;;4959061;28;20030;-77
2023/04/09 10:38:08;;;;;;;57.47;35.33;;;9.10;99.90;;;;;;4957927;28;20026;-77
2023/04/09 10:40:46;;;;;;;48.42;28.85;;;9.20;99.90;;;;;;4976338;28;20097;-77
2023/04/09 10:43:12;;;;;;;54.78;31.80;;;9.40;99.90;;;;;;4958588;28;20037;-77
2023/04/09 10:45:40;;;;;;;46.05;27.88;;;9.60;99.90;;;;;;4976004;28;20102;-78
2023/04/09 10:48:13;;;;;;;96.97;47.97;;;9.70;99.90;;;;;;4957959;28;20118;-77
2023/04/09 10:50:42;;;;;;;50.60;29.05;;;9.90;99.90;;;;;;4976314;28;20031;-77
2023/04/09 10:53:21;;;;;;;57.80;30.48;;;10.00;99.90;;;;;;4959091;28;20039;-77
2023/04/09 10:55:51;;;;;;;95.97;45.17;;;10.10;99.90;;;;;;4976784;28;20019;-77
2023/04/09 10:58:17;;;;;;;39.10;23.80;;;10.10;99.90;;;;;;4976503;28;20030;-77
2023/04/09 11:00:48;;;;;;;29.63;19.58;;;10.20;99.90;;;;;;4976557;28;20038;-75
2023/04/09 11:03:29;;;;;;;63.85;34.95;;;10.20;99.90;;;;;;4959162;28;20504;-75
2023/04/09 11:06:01;;;;;;;189.90;91.88;;;10.40;99.90;;;;;;4959178;28;20030;-76
2023/04/09 11:08:33;;;;;;;80.07;40.95;;;10.50;99.90;;;;;;4958909;28;20114;-76
2023/04/09 11:11:00;;;;;;;206.35;82.53;;;10.70;99.90;;;;;;4976417;28;20023;-76
2023/04/09 11:13:27;;;;;;;44.75;25.17;;;11.00;99.40;;;;;;4958774;28;20509;-76
2023/04/09 11:15:54;;;;;;;27.90;18.80;;;11.20;98.60;;;;;;4958961;28;20430;-78
2023/04/09 11:18:22;;;;;;;35.20;20.40;;;11.40;91.60;;;;;;4976835;28;20027;-76
2023/04/09 11:20:48;;;;;;;31.98;18.85;;;11.30;87.70;;;;;;4961144;28;20062;-76
2023/04/09 11:23:16;;;;;;;13.45;9.68;;;11.60;87.70;;;;;;4958797;28;20069;-76
2023/04/09 11:25:47;;;;;;;25.90;15.50;;;11.60;77.50;;;;;;4958362;28;20035;-78
2023/04/09 11:28:13;;;;;;;23.02;14.52;;;11.60;78.50;;;;;;4972436;28;20386;-77
2023/04/09 11:30:38;;;;;;;27.48;15.50;;;11.60;78.20;;;;;;4958686;28;20026;-76
2023/04/09 11:33:05;;;;;;;14.05;10.07;;;11.60;80.50;;;;;;4958532;28;20026;-79
2023/04/09 11:35:34;;;;;;;16.45;10.98;;;11.30;73.70;;;;;;4955501;29;20038;-78
2023/04/09 11:37:59;;;;;;;14.75;10.43;;;11.20;74.50;;;;;;4955256;28;20027;-78
2023/04/09 11:40:27;;;;;;;14.90;10.68;;;11.20;75.50;;;;;;4955331;28;20041;-78
2023/04/09 11:42:54;;;;;;;11.38;9.70;;;11.20;75.00;;;;;;4956502;28;20038;-76
2023/04/09 11:45:26;;;;;;;25.55;13.68;;;11.20;74.50;;;;;;4955302;28;20058;-77
2023/04/09 11:47:52;;;;;;;20.17;11.90;;;11.20;73.50;;;;;;4956655;28;20056;-76
2023/04/09 11:50:19;;;;;;;13.25;9.55;;;11.30;73.60;;;;;;4939358;29;20023;-76
2023/04/09 11:52:46;;;;;;;19.90;12.90;;;11.50;72.00;;;;;;4968937;28;20035;-76
2023/04/09 11:55:22;;;;;;;15.93;11.52;;;11.60;69.20;;;;;;4944618;28;20063;-76
2023/04/09 11:57:50;;;;;;;13.15;9.50;;;11.80;69.40;;;;;;4938467;28;20503;-77
2023/04/09 12:00:16;;;;;;;24.45;15.02;;;11.90;68.00;;;;;;4953819;28;20047;-77
2023/04/09 12:02:47;;;;;;;12.75;9.82;;;12.10;69.30;;;;;;4938102;28;20082;-77
2023/04/09 12:05:27;;;;;;;8.82;7.88;;;12.20;66.60;;;;;;4969969;28;20114;-77
2023/04/09 12:07:58;;;;;;;12.30;9.43;;;12.20;62.00;;;;;;4957444;28;20038;-77
2023/04/09 12:10:33;;;;;;;13.35;9.60;;;12.20;64.30;;;;;;4956816;28;20039;-77
2023/04/09 12:13:07;;;;;;;55.60;31.80;;;12.20;64.10;;;;;;4974411;28;20019;-77
2023/04/09 12:15:34;;;;;;;13.82;10.25;;;12.40;64.10;;;;;;4957138;28;20423;-79
2023/04/09 12:18:00;;;;;;;11.18;8.88;;;12.30;59.80;;;;;;4974413;28;20413;-78
2023/04/09 12:20:33;;;;;;;10.30;8.35;;;12.20;60.20;;;;;;4956031;28;20047;-77
2023/04/09 12:23:01;;;;;;;15.93;9.77;;;12.50;60.10;;;;;;4974219;28;20031;-78
2023/04/09 12:25:27;;;;;;;20.52;14.85;;;12.50;59.20;;;;;;4974069;28;20045;-79
2023/04/09 12:27:55;;;;;;;13.35;10.70;;;12.80;62.60;;;;;;4956976;28;20018;-78
2023/04/09 12:30:20;;;;;;;15.75;9.15;;;12.80;61.30;;;;;;4973854;28;20134;-79
2023/04/09 12:32:46;;;;;;;12.45;9.75;;;12.80;60.40;;;;;;4974279;28;20097;-78
2023/04/09 12:35:13;;;;;;;11.25;10.05;;;12.80;59.10;;;;;;4972957;28;20086;-77
2023/04/09 12:37:39;;;;;;;12.43;10.48;;;12.60;58.50;;;;;;4973367;28;20377;-76